sensor_id;sensor_type;location;lat;lon;timestamp;temperature;humidity
75217;HTU21D;63800;51.972;5.682;2023-05-07T00:01:53;14.41;110.81
75217;HTU21D;63800;51.972;5.682;2023-05-07T00:04:19;14.47;110.87
75217;HTU21D;63800;51.972;5.682;2023-05-07T00:06:44;14.33;111.03
75217;HTU21D;63800;51.972;5.682;2023-05-07T00:09:10;14.40;108.88
75217;HTU21D;63800;51.972;5.682;2023-05-07T00:11:36;14.40;109.46
75217;HTU21D;63800;51.972;5.682;2023-05-07T00:14:01;14.40;109.76
75217;HTU21D;63800;51.972;5.682;2023-05-07T00:16:27;14.30;110.64
75217;HTU21D;63800;51.972;5.682;2023-05-07T00:18:52;14.22;111.13
75217;HTU21D;63800;51.972;5.682;2023-05-07T00:21:18;14.17;111.22
75217;HTU21D;63800;51.972;5.682;2023-05-07T00:23:43;14.08;111.72
75217;HTU21D;63800;51.972;5.682;2023-05-07T00:26:08;14.06;112.07
75217;HTU21D;63800;51.972;5.682;2023-05-07T00:28:34;14.07;111.42
75217;HTU21D;63800;51.972;5.682;2023-05-07T00:30:59;14.01;111.84
75217;HTU21D;63800;51.972;5.682;2023-05-07T00:33:25;14.04;112.19
75217;HTU21D;63800;51.972;5.682;2023-05-07T00:35:52;13.96;112.35
75217;HTU21D;63800;51.972;5.682;2023-05-07T00:38:19;13.93;112.13
75217;HTU21D;63800;51.972;5.682;2023-05-07T00:40:44;13.97;111.62
75217;HTU21D;63800;51.972;5.682;2023-05-07T00:43:10;13.89;112.04
75217;HTU21D;63800;51.972;5.682;2023-05-07T00:45:36;13.85;112.79
75217;HTU21D;63800;51.972;5.682;2023-05-07T00:48:05;13.86;112.48
75217;HTU21D;63800;51.972;5.682;2023-05-07T00:50:31;13.81;113.54
75217;HTU21D;63800;51.972;5.682;2023-05-07T00:52:56;13.86;112.83
75217;HTU21D;63800;51.972;5.682;2023-05-07T00:55:23;13.85;113.29
75217;HTU21D;63800;51.972;5.682;2023-05-07T00:57:49;13.89;112.18
75217;HTU21D;63800;51.972;5.682;2023-05-07T01:00:15;13.90;112.43
75217;HTU21D;63800;51.972;5.682;2023-05-07T01:02:42;13.91;112.98
75217;HTU21D;63800;51.972;5.682;2023-05-07T01:05:13;14.00;111.58
75217;HTU21D;63800;51.972;5.682;2023-05-07T01:07:40;13.95;112.10
75217;HTU21D;63800;51.972;5.682;2023-05-07T01:10:07;13.95;112.74
75217;HTU21D;63800;51.972;5.682;2023-05-07T01:12:34;13.95;112.45
75217;HTU21D;63800;51.972;5.682;2023-05-07T01:15:01;14.01;112.90
75217;HTU21D;63800;51.972;5.682;2023-05-07T01:17:27;14.04;112.31
75217;HTU21D;63800;51.972;5.682;2023-05-07T01:19:52;14.06;111.97
75217;HTU21D;63800;51.972;5.682;2023-05-07T01:22:39;14.07;112.03
75217;HTU21D;63800;51.972;5.682;2023-05-07T01:25:05;14.05;112.34
75217;HTU21D;63800;51.972;5.682;2023-05-07T01:27:32;14.12;110.84
75217;HTU21D;63800;51.972;5.682;2023-05-07T01:30:03;14.14;110.98
75217;HTU21D;63800;51.972;5.682;2023-05-07T01:32:44;14.20;110.97
75217;HTU21D;63800;51.972;5.682;2023-05-07T01:35:18;14.19;111.19
75217;HTU21D;63800;51.972;5.682;2023-05-07T01:37:44;14.11;112.19
75217;HTU21D;63800;51.972;5.682;2023-05-07T01:40:10;14.12;110.74
75217;HTU21D;63800;51.972;5.682;2023-05-07T01:42:35;14.17;111.26
75217;HTU21D;63800;51.972;5.682;2023-05-07T01:45:01;14.10;110.49
75217;HTU21D;63800;51.972;5.682;2023-05-07T01:47:27;14.12;111.22
75217;HTU21D;63800;51.972;5.682;2023-05-07T01:49:54;14.11;110.93
75217;HTU21D;63800;51.972;5.682;2023-05-07T01:52:20;14.12;110.97
75217;HTU21D;63800;51.972;5.682;2023-05-07T01:54:45;14.00;111.68
75217;HTU21D;63800;51.972;5.682;2023-05-07T01:57:10;14.11;110.88
75217;HTU21D;63800;51.972;5.682;2023-05-07T01:59:36;14.13;109.49
75217;HTU21D;63800;51.972;5.682;2023-05-07T02:02:02;14.10;109.58
75217;HTU21D;63800;51.972;5.682;2023-05-07T02:04:27;14.09;111.04
75217;HTU21D;63800;51.972;5.682;2023-05-07T02:06:52;14.08;111.16
75217;HTU21D;63800;51.972;5.682;2023-05-07T02:09:18;14.08;110.47
75217;HTU21D;63800;51.972;5.682;2023-05-07T02:11:44;14.11;109.79
75217;HTU21D;63800;51.972;5.682;2023-05-07T02:14:09;14.10;110.77
75217;HTU21D;63800;51.972;5.682;2023-05-07T02:16:35;14.05;110.94
75217;HTU21D;63800;51.972;5.682;2023-05-07T02:19:00;14.09;110.63
75217;HTU21D;63800;51.972;5.682;2023-05-07T02:21:26;14.03;111.04
75217;HTU21D;63800;51.972;5.682;2023-05-07T02:23:51;14.19;111.14
75217;HTU21D;63800;51.972;5.682;2023-05-07T02:26:18;14.00;111.70
75217;HTU21D;63800;51.972;5.682;2023-05-07T02:28:43;13.96;112.35
75217;HTU21D;63800;51.972;5.682;2023-05-07T02:31:09;13.95;111.74
75217;HTU21D;63800;51.972;5.682;2023-05-07T02:33:34;14.09;110.78
75217;HTU21D;63800;51.972;5.682;2023-05-07T02:36:07;14.14;109.89
75217;HTU21D;63800;51.972;5.682;2023-05-07T02:38:33;14.15;108.80
75217;HTU21D;63800;51.972;5.682;2023-05-07T02:40:59;14.09;109.81
75217;HTU21D;63800;51.972;5.682;2023-05-07T02:43:24;14.19;108.34
75217;HTU21D;63800;51.972;5.682;2023-05-07T02:48:28;14.27;107.72
75217;HTU21D;63800;51.972;5.682;2023-05-07T02:50:53;14.20;109.20
75217;HTU21D;63800;51.972;5.682;2023-05-07T02:53:19;14.20;108.63
75217;HTU21D;63800;51.972;5.682;2023-05-07T02:55:44;14.20;109.59
75217;HTU21D;63800;51.972;5.682;2023-05-07T02:58:10;14.14;109.54
75217;HTU21D;63800;51.972;5.682;2023-05-07T03:00:35;14.23;107.85
75217;HTU21D;63800;51.972;5.682;2023-05-07T03:03:01;14.21;108.72
75217;HTU21D;63800;51.972;5.682;2023-05-07T03:05:26;14.21;107.53
75217;HTU21D;63800;51.972;5.682;2023-05-07T03:07:52;14.13;109.30
75217;HTU21D;63800;51.972;5.682;2023-05-07T03:10:17;14.11;109.64
75217;HTU21D;63800;51.972;5.682;2023-05-07T03:12:43;13.96;110.67
75217;HTU21D;63800;51.972;5.682;2023-05-07T03:15:09;13.89;110.79
75217;HTU21D;63800;51.972;5.682;2023-05-07T03:17:36;13.86;111.36
75217;HTU21D;63800;51.972;5.682;2023-05-07T03:20:02;13.79;111.12
75217;HTU21D;63800;51.972;5.682;2023-05-07T03:22:27;13.83;111.18
75217;HTU21D;63800;51.972;5.682;2023-05-07T03:24:53;14.04;109.63
75217;HTU21D;63800;51.972;5.682;2023-05-07T03:27:18;13.99;109.91
75217;HTU21D;63800;51.972;5.682;2023-05-07T03:29:43;13.97;110.60
75217;HTU21D;63800;51.972;5.682;2023-05-07T03:32:09;13.94;110.22
75217;HTU21D;63800;51.972;5.682;2023-05-07T03:34:34;14.12;108.78
75217;HTU21D;63800;51.972;5.682;2023-05-07T03:37:00;14.06;108.76
75217;HTU21D;63800;51.972;5.682;2023-05-07T03:39:25;14.10;108.04
75217;HTU21D;63800;51.972;5.682;2023-05-07T03:41:51;14.15;107.90
75217;HTU21D;63800;51.972;5.682;2023-05-07T03:44:16;14.18;106.47
75217;HTU21D;63800;51.972;5.682;2023-05-07T03:46:42;14.15;105.48
75217;HTU21D;63800;51.972;5.682;2023-05-07T03:49:07;14.26;106.58
75217;HTU21D;63800;51.972;5.682;2023-05-07T03:51:33;14.21;107.24
75217;HTU21D;63800;51.972;5.682;2023-05-07T03:53:58;14.14;105.10
75217;HTU21D;63800;51.972;5.682;2023-05-07T03:56:24;14.21;105.99
75217;HTU21D;63800;51.972;5.682;2023-05-07T03:58:52;14.13;106.34
75217;HTU21D;63800;51.972;5.682;2023-05-07T04:01:17;14.28;106.43
75217;HTU21D;63800;51.972;5.682;2023-05-07T04:03:43;14.15;106.20
75217;HTU21D;63800;51.972;5.682;2023-05-07T04:06:08;14.12;108.88
75217;HTU21D;63800;51.972;5.682;2023-05-07T04:08:34;14.09;108.34
75217;HTU21D;63800;51.972;5.682;2023-05-07T04:10:59;14.18;107.96
75217;HTU21D;63800;51.972;5.682;2023-05-07T04:13:25;14.04;109.49
75217;HTU21D;63800;51.972;5.682;2023-05-07T04:15:51;14.04;109.10
75217;HTU21D;63800;51.972;5.682;2023-05-07T04:18:17;14.10;108.78
75217;HTU21D;63800;51.972;5.682;2023-05-07T04:20:43;14.10;108.84
75217;HTU21D;63800;51.972;5.682;2023-05-07T04:23:08;14.10;109.14
75217;HTU21D;63800;51.972;5.682;2023-05-07T04:25:34;14.19;108.66
75217;HTU21D;63800;51.972;5.682;2023-05-07T04:27:59;14.21;105.76
75217;HTU21D;63800;51.972;5.682;2023-05-07T04:30:25;14.38;104.62
75217;HTU21D;63800;51.972;5.682;2023-05-07T04:32:51;14.45;105.21
75217;HTU21D;63800;51.972;5.682;2023-05-07T04:35:16;14.49;105.21
75217;HTU21D;63800;51.972;5.682;2023-05-07T04:37:42;14.33;107.30
75217;HTU21D;63800;51.972;5.682;2023-05-07T04:40:08;14.29;108.43
75217;HTU21D;63800;51.972;5.682;2023-05-07T04:42:33;14.20;108.01
75217;HTU21D;63800;51.972;5.682;2023-05-07T04:44:59;14.32;106.44
75217;HTU21D;63800;51.972;5.682;2023-05-07T04:47:25;14.45;107.16
75217;HTU21D;63800;51.972;5.682;2023-05-07T04:49:50;14.48;106.39
75217;HTU21D;63800;51.972;5.682;2023-05-07T04:52:16;14.59;104.93
75217;HTU21D;63800;51.972;5.682;2023-05-07T04:54:42;14.59;104.81
75217;HTU21D;63800;51.972;5.682;2023-05-07T04:57:07;14.57;105.34
75217;HTU21D;63800;51.972;5.682;2023-05-07T04:59:33;14.42;106.76
75217;HTU21D;63800;51.972;5.682;2023-05-07T05:01:59;14.42;108.05
75217;HTU21D;63800;51.972;5.682;2023-05-07T05:04:24;14.34;106.69
75217;HTU21D;63800;51.972;5.682;2023-05-07T05:06:49;14.30;107.74
75217;HTU21D;63800;51.972;5.682;2023-05-07T05:09:15;14.65;104.10
75217;HTU21D;63800;51.972;5.682;2023-05-07T05:11:41;14.93;100.53
75217;HTU21D;63800;51.972;5.682;2023-05-07T05:14:06;14.63;104.27
75217;HTU21D;63800;51.972;5.682;2023-05-07T05:16:32;14.69;103.95
75217;HTU21D;63800;51.972;5.682;2023-05-07T05:18:58;14.62;104.93
75217;HTU21D;63800;51.972;5.682;2023-05-07T05:21:23;14.58;106.03
75217;HTU21D;63800;51.972;5.682;2023-05-07T05:23:48;14.44;107.13
75217;HTU21D;63800;51.972;5.682;2023-05-07T05:26:14;14.58;106.13
75217;HTU21D;63800;51.972;5.682;2023-05-07T05:28:39;14.65;104.52
75217;HTU21D;63800;51.972;5.682;2023-05-07T05:31:05;14.84;102.41
75217;HTU21D;63800;51.972;5.682;2023-05-07T05:33:30;15.00;100.49
75217;HTU21D;63800;51.972;5.682;2023-05-07T05:35:56;15.01;101.46
75217;HTU21D;63800;51.972;5.682;2023-05-07T05:38:21;14.68;105.61
75217;HTU21D;63800;51.972;5.682;2023-05-07T05:40:47;14.89;103.26
75217;HTU21D;63800;51.972;5.682;2023-05-07T05:43:13;15.10;101.48
75217;HTU21D;63800;51.972;5.682;2023-05-07T05:45:39;14.99;103.47
75217;HTU21D;63800;51.972;5.682;2023-05-07T05:48:05;14.94;102.68
75217;HTU21D;63800;51.972;5.682;2023-05-07T05:50:31;14.85;103.70
75217;HTU21D;63800;51.972;5.682;2023-05-07T05:52:56;14.83;104.57
75217;HTU21D;63800;51.972;5.682;2023-05-07T05:55:23;14.83;106.03
75217;HTU21D;63800;51.972;5.682;2023-05-07T05:57:49;14.75;105.51
75217;HTU21D;63800;51.972;5.682;2023-05-07T06:00:15;14.85;104.10
75217;HTU21D;63800;51.972;5.682;2023-05-07T06:02:41;14.88;103.92
75217;HTU21D;63800;51.972;5.682;2023-05-07T06:05:08;15.02;102.59
75217;HTU21D;63800;51.972;5.682;2023-05-07T06:07:33;14.89;105.41
75217;HTU21D;63800;51.972;5.682;2023-05-07T06:10:00;14.73;105.87
75217;HTU21D;63800;51.972;5.682;2023-05-07T06:12:25;14.78;105.63
75217;HTU21D;63800;51.972;5.682;2023-05-07T06:14:50;14.83;104.78
75217;HTU21D;63800;51.972;5.682;2023-05-07T06:17:16;14.99;105.15
75217;HTU21D;63800;51.972;5.682;2023-05-07T06:19:42;15.10;102.69
75217;HTU21D;63800;51.972;5.682;2023-05-07T06:22:07;15.18;102.29
75217;HTU21D;63800;51.972;5.682;2023-05-07T06:24:33;15.36;99.84
75217;HTU21D;63800;51.972;5.682;2023-05-07T06:26:58;15.36;100.32
75217;HTU21D;63800;51.972;5.682;2023-05-07T06:29:24;15.11;105.37
75217;HTU21D;63800;51.972;5.682;2023-05-07T06:31:52;15.18;104.90
75217;HTU21D;63800;51.972;5.682;2023-05-07T06:34:17;15.26;101.94
75217;HTU21D;63800;51.972;5.682;2023-05-07T06:36:43;15.17;106.14
75217;HTU21D;63800;51.972;5.682;2023-05-07T06:39:09;15.12;104.74
75217;HTU21D;63800;51.972;5.682;2023-05-07T06:41:34;15.09;104.44
75217;HTU21D;63800;51.972;5.682;2023-05-07T06:44:03;15.30;102.53
75217;HTU21D;63800;51.972;5.682;2023-05-07T06:46:30;15.47;101.22
75217;HTU21D;63800;51.972;5.682;2023-05-07T06:48:56;15.31;103.36
75217;HTU21D;63800;51.972;5.682;2023-05-07T06:51:22;15.36;103.04
75217;HTU21D;63800;51.972;5.682;2023-05-07T06:53:47;15.42;102.19
75217;HTU21D;63800;51.972;5.682;2023-05-07T06:56:13;15.46;103.13
75217;HTU21D;63800;51.972;5.682;2023-05-07T06:58:38;15.42;103.18
75217;HTU21D;63800;51.972;5.682;2023-05-07T07:01:03;15.53;103.00
75217;HTU21D;63800;51.972;5.682;2023-05-07T07:03:30;15.53;100.55
75217;HTU21D;63800;51.972;5.682;2023-05-07T07:05:55;15.48;101.95
75217;HTU21D;63800;51.972;5.682;2023-05-07T07:08:21;15.53;105.27
75217;HTU21D;63800;51.972;5.682;2023-05-07T07:10:47;15.52;103.70
75217;HTU21D;63800;51.972;5.682;2023-05-07T07:13:13;15.51;103.28
75217;HTU21D;63800;51.972;5.682;2023-05-07T07:15:38;15.55;101.37
75217;HTU21D;63800;51.972;5.682;2023-05-07T07:18:05;15.54;101.73
75217;HTU21D;63800;51.972;5.682;2023-05-07T07:20:30;15.47;105.05
75217;HTU21D;63800;51.972;5.682;2023-05-07T07:22:56;15.48;101.64
75217;HTU21D;63800;51.972;5.682;2023-05-07T07:25:21;15.43;105.67
75217;HTU21D;63800;51.972;5.682;2023-05-07T07:27:47;15.36;106.17
75217;HTU21D;63800;51.972;5.682;2023-05-07T07:30:12;15.47;104.82
75217;HTU21D;63800;51.972;5.682;2023-05-07T07:32:38;15.60;102.58
75217;HTU21D;63800;51.972;5.682;2023-05-07T07:35:03;15.57;103.48
75217;HTU21D;63800;51.972;5.682;2023-05-07T07:37:30;15.58;104.05
75217;HTU21D;63800;51.972;5.682;2023-05-07T07:39:55;15.53;105.51
75217;HTU21D;63800;51.972;5.682;2023-05-07T07:42:21;15.68;105.89
75217;HTU21D;63800;51.972;5.682;2023-05-07T07:44:46;15.84;102.80
75217;HTU21D;63800;51.972;5.682;2023-05-07T07:47:12;16.07;101.38
75217;HTU21D;63800;51.972;5.682;2023-05-07T07:49:37;15.99;102.14
75217;HTU21D;63800;51.972;5.682;2023-05-07T07:52:02;16.35;99.19
75217;HTU21D;63800;51.972;5.682;2023-05-07T07:54:28;16.30;100.16
75217;HTU21D;63800;51.972;5.682;2023-05-07T07:56:54;16.47;98.64
75217;HTU21D;63800;51.972;5.682;2023-05-07T07:59:21;16.56;98.87
75217;HTU21D;63800;51.972;5.682;2023-05-07T08:01:46;16.35;100.22
75217;HTU21D;63800;51.972;5.682;2023-05-07T08:04:15;16.32;103.45
75217;HTU21D;63800;51.972;5.682;2023-05-07T08:06:40;16.39;101.03
75217;HTU21D;63800;51.972;5.682;2023-05-07T08:09:06;16.46;99.29
75217;HTU21D;63800;51.972;5.682;2023-05-07T08:11:31;16.52;98.77
75217;HTU21D;63800;51.972;5.682;2023-05-07T08:13:56;16.75;97.87
75217;HTU21D;63800;51.972;5.682;2023-05-07T08:16:22;16.86;97.13
75217;HTU21D;63800;51.972;5.682;2023-05-07T08:18:47;16.66;98.56
75217;HTU21D;63800;51.972;5.682;2023-05-07T08:21:13;16.67;98.61
75217;HTU21D;63800;51.972;5.682;2023-05-07T08:23:38;16.94;95.39
75217;HTU21D;63800;51.972;5.682;2023-05-07T08:26:04;16.85;95.36
75217;HTU21D;63800;51.972;5.682;2023-05-07T08:28:29;16.70;96.37
75217;HTU21D;63800;51.972;5.682;2023-05-07T08:30:55;17.03;93.60
75217;HTU21D;63800;51.972;5.682;2023-05-07T08:33:22;16.75;96.25
75217;HTU21D;63800;51.972;5.682;2023-05-07T08:35:47;16.77;97.20
75217;HTU21D;63800;51.972;5.682;2023-05-07T08:38:13;16.78;97.50
75217;HTU21D;63800;51.972;5.682;2023-05-07T08:40:39;17.01;95.74
75217;HTU21D;63800;51.972;5.682;2023-05-07T08:43:07;17.08;94.15
75217;HTU21D;63800;51.972;5.682;2023-05-07T08:45:34;17.22;91.74
75217;HTU21D;63800;51.972;5.682;2023-05-07T08:48:02;17.26;92.72
75217;HTU21D;63800;51.972;5.682;2023-05-07T08:50:28;17.52;89.62
75217;HTU21D;63800;51.972;5.682;2023-05-07T08:52:54;17.53;90.80
75217;HTU21D;63800;51.972;5.682;2023-05-07T08:55:23;17.53;92.89
75217;HTU21D;63800;51.972;5.682;2023-05-07T08:57:49;17.56;91.79
75217;HTU21D;63800;51.972;5.682;2023-05-07T09:00:15;17.66;89.46
75217;HTU21D;63800;51.972;5.682;2023-05-07T09:02:41;17.72;89.61
75217;HTU21D;63800;51.972;5.682;2023-05-07T09:05:06;17.80;89.46
75217;HTU21D;63800;51.972;5.682;2023-05-07T09:07:32;18.06;87.88
75217;HTU21D;63800;51.972;5.682;2023-05-07T09:09:58;18.29;87.28
75217;HTU21D;63800;51.972;5.682;2023-05-07T09:12:24;18.27;85.82
75217;HTU21D;63800;51.972;5.682;2023-05-07T09:14:49;18.36;83.23
75217;HTU21D;63800;51.972;5.682;2023-05-07T09:17:16;18.21;83.93
75217;HTU21D;63800;51.972;5.682;2023-05-07T09:19:43;18.40;84.48
75217;HTU21D;63800;51.972;5.682;2023-05-07T09:22:09;18.56;83.02
75217;HTU21D;63800;51.972;5.682;2023-05-07T09:24:34;18.73;80.34
75217;HTU21D;63800;51.972;5.682;2023-05-07T09:27:03;18.92;79.52
75217;HTU21D;63800;51.972;5.682;2023-05-07T09:29:29;18.82;82.59
75217;HTU21D;63800;51.972;5.682;2023-05-07T09:31:55;18.63;82.44
75217;HTU21D;63800;51.972;5.682;2023-05-07T09:34:21;18.63;83.58
75217;HTU21D;63800;51.972;5.682;2023-05-07T09:36:47;18.65;82.24
75217;HTU21D;63800;51.972;5.682;2023-05-07T09:39:13;18.42;83.13
75217;HTU21D;63800;51.972;5.682;2023-05-07T09:41:46;18.59;81.63
75217;HTU21D;63800;51.972;5.682;2023-05-07T09:44:13;18.65;80.42
75217;HTU21D;63800;51.972;5.682;2023-05-07T09:46:42;18.87;80.62
75217;HTU21D;63800;51.972;5.682;2023-05-07T09:49:12;18.73;83.74
75217;HTU21D;63800;51.972;5.682;2023-05-07T09:51:45;18.99;81.20
75217;HTU21D;63800;51.972;5.682;2023-05-07T09:54:11;18.99;82.20
75217;HTU21D;63800;51.972;5.682;2023-05-07T09:56:37;19.25;79.25
75217;HTU21D;63800;51.972;5.682;2023-05-07T09:59:03;19.03;79.04
75217;HTU21D;63800;51.972;5.682;2023-05-07T10:01:31;18.88;81.14
75217;HTU21D;63800;51.972;5.682;2023-05-07T10:03:58;18.82;83.35
75217;HTU21D;63800;51.972;5.682;2023-05-07T10:06:25;18.76;79.16
75217;HTU21D;63800;51.972;5.682;2023-05-07T10:08:51;19.02;78.73
75217;HTU21D;63800;51.972;5.682;2023-05-07T10:11:18;19.17;78.81
75217;HTU21D;63800;51.972;5.682;2023-05-07T10:13:43;19.07;77.98
75217;HTU21D;63800;51.972;5.682;2023-05-07T10:16:09;19.07;77.62
75217;HTU21D;63800;51.972;5.682;2023-05-07T10:18:36;18.99;80.17
75217;HTU21D;63800;51.972;5.682;2023-05-07T10:21:20;18.82;80.64
75217;HTU21D;63800;51.972;5.682;2023-05-07T10:23:50;18.99;78.69
75217;HTU21D;63800;51.972;5.682;2023-05-07T10:26:17;19.06;78.37
75217;HTU21D;63800;51.972;5.682;2023-05-07T10:28:47;19.12;81.01
75217;HTU21D;63800;51.972;5.682;2023-05-07T10:34:09;19.11;79.56
75217;HTU21D;63800;51.972;5.682;2023-05-07T10:36:36;19.17;78.22
75217;HTU21D;63800;51.972;5.682;2023-05-07T10:39:01;19.38;77.44
75217;HTU21D;63800;51.972;5.682;2023-05-07T10:41:27;19.38;76.34
75217;HTU21D;63800;51.972;5.682;2023-05-07T10:43:52;19.54;76.79
75217;HTU21D;63800;51.972;5.682;2023-05-07T10:46:19;19.66;78.27
75217;HTU21D;63800;51.972;5.682;2023-05-07T10:51:27;19.76;74.83
75217;HTU21D;63800;51.972;5.682;2023-05-07T10:56:37;19.92;74.47
75217;HTU21D;63800;51.972;5.682;2023-05-07T11:04:24;20.65;71.36
75217;HTU21D;63800;51.972;5.682;2023-05-07T11:13:02;20.15;73.46
75217;HTU21D;63800;51.972;5.682;2023-05-07T11:15:09;20.35;73.21
75217;HTU21D;63800;51.972;5.682;2023-05-07T11:17:52;20.46;72.44
75217;HTU21D;63800;51.972;5.682;2023-05-07T11:20:18;20.69;71.56
75217;HTU21D;63800;51.972;5.682;2023-05-07T11:22:44;20.56;73.49
75217;HTU21D;63800;51.972;5.682;2023-05-07T11:25:09;20.74;71.93
75217;HTU21D;63800;51.972;5.682;2023-05-07T11:27:36;20.70;71.39
75217;HTU21D;63800;51.972;5.682;2023-05-07T11:30:02;20.54;70.61
75217;HTU21D;63800;51.972;5.682;2023-05-07T11:32:32;20.57;73.72
75217;HTU21D;63800;51.972;5.682;2023-05-07T11:34:58;20.62;70.49
75217;HTU21D;63800;51.972;5.682;2023-05-07T11:37:26;20.56;71.48
75217;HTU21D;63800;51.972;5.682;2023-05-07T11:40:03;20.54;69.89
75217;HTU21D;63800;51.972;5.682;2023-05-07T11:42:36;20.54;74.06
75217;HTU21D;63800;51.972;5.682;2023-05-07T11:45:03;20.66;73.82
75217;HTU21D;63800;51.972;5.682;2023-05-07T11:47:32;20.80;73.15
75217;HTU21D;63800;51.972;5.682;2023-05-07T11:50:03;20.76;73.28
75217;HTU21D;63800;51.972;5.682;2023-05-07T11:52:30;20.48;72.61
75217;HTU21D;63800;51.972;5.682;2023-05-07T11:54:57;20.36;76.02
75217;HTU21D;63800;51.972;5.682;2023-05-07T11:57:24;20.58;75.08
75217;HTU21D;63800;51.972;5.682;2023-05-07T11:59:57;20.66;73.80
75217;HTU21D;63800;51.972;5.682;2023-05-07T12:02:23;20.58;73.99
75217;HTU21D;63800;51.972;5.682;2023-05-07T12:04:50;20.49;71.97
75217;HTU21D;63800;51.972;5.682;2023-05-07T12:07:16;20.48;73.05
75217;HTU21D;63800;51.972;5.682;2023-05-07T12:09:43;20.90;71.13
75217;HTU21D;63800;51.972;5.682;2023-05-07T12:12:10;20.95;71.44
75217;HTU21D;63800;51.972;5.682;2023-05-07T12:14:42;20.95;68.70
75217;HTU21D;63800;51.972;5.682;2023-05-07T12:17:08;21.24;69.58
75217;HTU21D;63800;51.972;5.682;2023-05-07T12:19:35;21.74;67.36
75217;HTU21D;63800;51.972;5.682;2023-05-07T12:22:02;21.61;70.26
75217;HTU21D;63800;51.972;5.682;2023-05-07T12:24:28;21.84;66.51
75217;HTU21D;63800;51.972;5.682;2023-05-07T12:26:53;21.70;68.23
75217;HTU21D;63800;51.972;5.682;2023-05-07T12:29:22;22.03;65.10
75217;HTU21D;63800;51.972;5.682;2023-05-07T12:31:50;21.94;65.75
75217;HTU21D;63800;51.972;5.682;2023-05-07T12:34:16;22.43;63.82
75217;HTU21D;63800;51.972;5.682;2023-05-07T12:36:41;23.10;63.93
75217;HTU21D;63800;51.972;5.682;2023-05-07T12:39:08;23.03;63.64
75217;HTU21D;63800;51.972;5.682;2023-05-07T12:41:56;23.44;61.55
75217;HTU21D;63800;51.972;5.682;2023-05-07T12:44:25;23.77;61.62
75217;HTU21D;63800;51.972;5.682;2023-05-07T12:46:51;23.82;60.31
75217;HTU21D;63800;51.972;5.682;2023-05-07T12:49:17;23.61;60.63
75217;HTU21D;63800;51.972;5.682;2023-05-07T12:51:43;23.39;63.01
75217;HTU21D;63800;51.972;5.682;2023-05-07T12:54:09;23.11;62.29
75217;HTU21D;63800;51.972;5.682;2023-05-07T12:56:37;22.66;62.60
75217;HTU21D;63800;51.972;5.682;2023-05-07T12:59:03;22.48;64.83
75217;HTU21D;63800;51.972;5.682;2023-05-07T13:01:34;22.64;63.77
75217;HTU21D;63800;51.972;5.682;2023-05-07T13:04:05;21.74;65.51
75217;HTU21D;63800;51.972;5.682;2023-05-07T13:06:30;21.52;64.74
75217;HTU21D;63800;51.972;5.682;2023-05-07T13:08:56;21.29;64.95
75217;HTU21D;63800;51.972;5.682;2023-05-07T13:11:22;21.32;73.21
75217;HTU21D;63800;51.972;5.682;2023-05-07T13:13:48;21.39;68.99
75217;HTU21D;63800;51.972;5.682;2023-05-07T13:16:13;21.47;69.27
75217;HTU21D;63800;51.972;5.682;2023-05-07T13:18:39;21.60;69.49
75217;HTU21D;63800;51.972;5.682;2023-05-07T13:21:05;21.80;67.90
75217;HTU21D;63800;51.972;5.682;2023-05-07T13:23:31;22.07;66.74
75217;HTU21D;63800;51.972;5.682;2023-05-07T13:25:57;22.18;65.37
75217;HTU21D;63800;51.972;5.682;2023-05-07T13:28:23;22.19;65.21
75217;HTU21D;63800;51.972;5.682;2023-05-07T13:30:49;22.16;65.99
75217;HTU21D;63800;51.972;5.682;2023-05-07T13:33:14;22.08;61.86
75217;HTU21D;63800;51.972;5.682;2023-05-07T13:35:41;21.90;59.10
75217;HTU21D;63800;51.972;5.682;2023-05-07T13:38:07;22.07;64.80
75217;HTU21D;63800;51.972;5.682;2023-05-07T13:40:33;22.05;60.42
75217;HTU21D;63800;51.972;5.682;2023-05-07T13:42:59;22.66;60.46
75217;HTU21D;63800;51.972;5.682;2023-05-07T13:45:27;23.36;64.50
75217;HTU21D;63800;51.972;5.682;2023-05-07T13:47:54;23.89;60.38
75217;HTU21D;63800;51.972;5.682;2023-05-07T13:50:20;23.73;60.38
75217;HTU21D;63800;51.972;5.682;2023-05-07T13:52:45;23.43;57.77
75217;HTU21D;63800;51.972;5.682;2023-05-07T13:55:19;22.56;60.60
75217;HTU21D;63800;51.972;5.682;2023-05-07T13:57:45;22.52;63.63
75217;HTU21D;63800;51.972;5.682;2023-05-07T14:00:11;22.61;63.36
75217;HTU21D;63800;51.972;5.682;2023-05-07T14:02:38;22.17;63.38
75217;HTU21D;63800;51.972;5.682;2023-05-07T14:05:04;22.23;63.09
75217;HTU21D;63800;51.972;5.682;2023-05-07T14:07:30;22.03;64.76
75217;HTU21D;63800;51.972;5.682;2023-05-07T14:09:56;22.42;62.18
75217;HTU21D;63800;51.972;5.682;2023-05-07T14:12:22;22.21;64.54
75217;HTU21D;63800;51.972;5.682;2023-05-07T14:14:48;21.77;64.59
75217;HTU21D;63800;51.972;5.682;2023-05-07T14:17:18;22.18;64.56
75217;HTU21D;63800;51.972;5.682;2023-05-07T14:19:43;21.76;64.97
75217;HTU21D;63800;51.972;5.682;2023-05-07T14:22:09;21.79;63.77
75217;HTU21D;63800;51.972;5.682;2023-05-07T14:24:35;21.67;64.80
75217;HTU21D;63800;51.972;5.682;2023-05-07T14:27:00;21.52;64.92
75217;HTU21D;63800;51.972;5.682;2023-05-07T14:29:25;21.66;66.59
75217;HTU21D;63800;51.972;5.682;2023-05-07T14:31:51;21.87;67.02
75217;HTU21D;63800;51.972;5.682;2023-05-07T14:34:16;21.81;66.29
75217;HTU21D;63800;51.972;5.682;2023-05-07T14:36:42;21.38;68.78
75217;HTU21D;63800;51.972;5.682;2023-05-07T14:39:09;21.39;67.74
75217;HTU21D;63800;51.972;5.682;2023-05-07T14:41:34;21.67;65.50
75217;HTU21D;63800;51.972;5.682;2023-05-07T14:44:00;21.83;66.82
75217;HTU21D;63800;51.972;5.682;2023-05-07T14:46:26;21.90;65.00
75217;HTU21D;63800;51.972;5.682;2023-05-07T14:48:52;21.87;65.63
75217;HTU21D;63800;51.972;5.682;2023-05-07T14:51:18;21.72;65.68
75217;HTU21D;63800;51.972;5.682;2023-05-07T14:53:44;21.87;66.24
75217;HTU21D;63800;51.972;5.682;2023-05-07T14:56:10;21.62;65.24
75217;HTU21D;63800;51.972;5.682;2023-05-07T14:58:35;21.69;66.66
75217;HTU21D;63800;51.972;5.682;2023-05-07T15:01:01;21.80;66.78
75217;HTU21D;63800;51.972;5.682;2023-05-07T15:03:26;21.83;66.08
75217;HTU21D;63800;51.972;5.682;2023-05-07T15:05:52;21.80;66.46
75217;HTU21D;63800;51.972;5.682;2023-05-07T15:08:18;21.37;66.85
75217;HTU21D;63800;51.972;5.682;2023-05-07T15:10:43;20.98;70.15
75217;HTU21D;63800;51.972;5.682;2023-05-07T15:13:10;21.13;68.05
75217;HTU21D;63800;51.972;5.682;2023-05-07T15:15:36;20.71;68.41
75217;HTU21D;63800;51.972;5.682;2023-05-07T15:18:02;19.66;68.28
75217;HTU21D;63800;51.972;5.682;2023-05-07T15:20:27;18.79;71.43
75217;HTU21D;63800;51.972;5.682;2023-05-07T15:22:53;18.68;72.20
75217;HTU21D;63800;51.972;5.682;2023-05-07T15:25:18;18.29;73.99